Time;durP1;ratioP1;P1;durP2;ratioP2;P2;SDS_P1;SDS_P2;PMS_P1;PMS_P2;Temp;Humidity;BMP_temperature;BMP_pressure;BME280_temperature;BME280_humidity;BME280_pressure;Samples;Min_cycle;Max_cycle;Signal;HPM_P1;HPM_P2
2022/03/04 00:00:40;;;;;;;63.80;24.85;;;;;;;8.03;79.80;100209.38;5042573;28;20049;-46
2022/03/04 00:03:10;;;;;;;70.43;25.95;;;;;;;8.03;80.68;100206.81;5045190;28;20139;-49
2022/03/04 00:05:38;;;;;;;62.88;23.65;;;;;;;8.03;80.26;100217.13;5044549;28;20135;-48
2022/03/04 00:08:05;;;;;;;67.00;25.23;;;;;;;8.03;79.70;100215.41;5044130;28;20079;-49
2022/03/04 00:10:33;;;;;;;62.50;24.90;;;;;;;8.04;80.29;100213.72;5020654;28;20130;-47
2022/03/04 00:13:00;;;;;;;67.28;26.30;;;;;;;8.03;80.61;100217.13;5043522;28;20041;-53
2022/03/04 00:15:27;;;;;;;58.70;23.77;;;;;;;8.01;80.60;100214.56;5041537;28;20046;-51
2022/03/04 00:17:53;;;;;;;56.03;21.77;;;;;;;7.98;80.06;100210.19;5045510;28;20056;-49
2022/03/04 00:20:20;;;;;;;65.05;22.23;;;;;;;7.98;80.87;100215.34;5041459;28;20600;-48
2022/03/04 00:22:48;;;;;;;63.03;22.58;;;;;;;7.97;80.57;100212.75;5041738;28;20501;-49
2022/03/04 00:25:14;;;;;;;64.90;23.40;;;;;;;7.96;80.77;100211.91;5042281;28;20068;-50
2022/03/04 00:27:41;;;;;;;61.30;22.50;;;;;;;7.92;80.01;100210.16;5043110;28;20076;-51
2022/03/04 00:30:08;;;;;;;64.90;25.95;;;;;;;7.93;80.26;100206.72;5042409;28;20041;-47
2022/03/04 00:32:36;;;;;;;50.63;21.88;;;;;;;7.91;80.24;100213.56;5044026;28;20052;-48
2022/03/04 00:35:05;;;;;;;62.95;23.52;;;;;;;7.88;80.56;100208.41;5010616;28;20047;-51
2022/03/04 00:37:32;;;;;;;64.43;24.80;;;;;;;7.89;80.54;100210.13;5040928;28;20053;-48
2022/03/04 00:39:59;;;;;;;62.03;24.42;;;;;;;7.90;80.66;100211.00;5041555;28;20045;-50
2022/03/04 00:42:27;;;;;;;61.92;23.42;;;;;;;7.88;79.74;100210.09;5021471;28;20050;-47
2022/03/04 00:44:54;;;;;;;59.13;22.58;;;;;;;7.88;79.98;100212.69;5042364;28;20040;-48
2022/03/04 00:47:21;;;;;;;62.30;24.40;;;;;;;7.89;80.76;100210.13;5024341;28;20048;-48
2022/03/04 00:49:48;;;;;;;67.63;23.67;;;;;;;7.90;80.68;100213.56;5038152;28;20098;-47
2022/03/04 00:52:14;;;;;;;60.50;23.23;;;;;;;7.89;79.66;100210.13;5039043;28;20065;-48
2022/03/04 00:54:41;;;;;;;58.85;22.65;;;;;;;7.91;80.45;100204.97;5040693;28;20171;-46
2022/03/04 00:57:07;;;;;;;61.00;21.92;;;;;;;7.92;80.25;100210.16;5040559;28;20103;-49
2022/03/04 00:59:34;;;;;;;57.08;22.30;;;;;;;7.91;80.02;100210.97;5037585;28;20057;-51
2022/03/04 01:02:01;;;;;;;60.00;22.92;;;;;;;7.89;79.81;100210.13;5042074;28;20054;-46
2022/03/04 01:04:27;;;;;;;63.25;22.70;;;;;;;7.87;80.96;100211.81;5039129;28;20049;-47
2022/03/04 01:06:54;;;;;;;58.30;22.70;;;;;;;7.90;80.07;100211.84;5043160;28;20048;-49
2022/03/04 01:09:21;;;;;;;63.75;25.10;;;;;;;7.87;80.72;100211.81;5039606;28;20049;-51
2022/03/04 01:11:47;;;;;;;67.03;22.10;;;;;;;7.90;79.79;100216.16;5039230;28;20106;-49
2022/03/04 01:14:14;;;;;;;63.10;21.65;;;;;;;7.89;79.62;100215.28;5036664;28;20045;-48
2022/03/04 01:16:42;;;;;;;61.92;20.35;;;;;;;7.90;80.56;100211.84;5043123;28;20923;-53
2022/03/04 01:19:27;;;;;;;57.60;20.58;;;;;;;7.90;80.31;100217.00;5041115;28;20762;-52
2022/03/04 01:21:55;;;;;;;52.67;19.35;;;;;;;7.91;80.19;100213.56;5040617;28;20057;-52
2022/03/04 01:24:40;;;;;;;58.65;20.10;;;;;;;7.92;80.46;100220.47;5042187;28;20094;-50
2022/03/04 01:27:08;;;;;;;59.95;21.10;;;;;;;7.91;80.62;100213.56;5040762;28;20057;-48
2022/03/04 01:29:36;;;;;;;63.05;22.13;;;;;;;7.89;80.54;100212.69;5040216;28;20053;-50
2022/03/04 01:32:05;;;;;;;66.35;21.58;;;;;;;7.87;80.50;100214.38;5036997;28;20049;-52
2022/03/04 01:34:35;;;;;;;63.60;20.15;;;;;;;7.89;79.72;100217.84;5040071;28;20146;-48
2022/03/04 01:37:19;;;;;;;59.83;20.52;;;;;;;7.87;79.98;100214.38;5042796;28;20143;-53
2022/03/04 01:39:45;;;;;;;65.35;23.77;;;;;;;7.88;79.67;100218.72;5039890;28;20044;-52
2022/03/04 01:42:12;;;;;;;64.00;20.35;;;;;;;7.88;80.55;100221.28;5047191;28;20342;-47
2022/03/04 01:44:40;;;;;;;94.45;28.90;;;;;;;7.92;80.78;100220.47;5041496;28;20110;-50
2022/03/04 01:47:07;;;;;;;52.47;16.38;;;;;;;7.95;80.68;100223.09;5022816;28;20510;-48
2022/03/04 01:49:34;;;;;;;13.98;6.90;;;;;;;7.89;80.32;100225.59;5042664;28;20517;-51
2022/03/04 01:52:02;;;;;;;11.60;5.60;;;;;;;7.83;80.03;100225.50;5039778;28;20493;-47
2022/03/04 01:54:29;;;;;;;10.20;4.72;;;;;;;7.76;79.00;100219.44;5044567;28;20115;-52
2022/03/04 01:56:56;;;;;;;8.40;5.00;;;;;;;7.75;80.25;100222.84;5044253;28;20049;-51
2022/03/04 01:59:22;;;;;;;9.43;4.90;;;;;;;7.69;78.68;100223.66;5045007;28;20045;-47
2022/03/04 02:01:51;;;;;;;9.27;4.93;;;;;;;7.64;79.84;100217.59;5045451;28;20126;-48
2022/03/04 02:04:20;;;;;;;11.15;4.65;;;;;;;7.62;79.76;100216.69;5048259;28;20063;-48
2022/03/04 02:06:47;;;;;;;10.85;4.78;;;;;;;7.56;78.70;100226.91;5041956;28;20057;-49
2022/03/04 02:09:15;;;;;;;7.35;4.50;;;;;;;7.45;79.43;100230.25;5045000;28;20045;-49
2022/03/04 02:11:44;;;;;;;11.02;5.28;;;;;;;7.40;78.76;100228.44;5024302;28;20049;-48
2022/03/04 02:14:11;;;;;;;11.60;5.45;;;;;;;7.35;78.58;100224.91;5047002;28;20041;-46
2022/03/04 02:19:15;;;;;;;9.50;4.60;;;;;;;7.20;78.55;100224.72;5053746;28;20396;-50
2022/03/04 02:21:53;;;;;;;8.90;3.72;;;;;;;7.11;78.83;100229.78;5017529;28;20041;-51
2022/03/04 02:24:23;;;;;;;7.30;2.80;;;;;;;7.06;79.36;100221.13;5010977;28;20105;-45
2022/03/04 02:26:51;;;;;;;11.35;4.25;;;;;;;7.06;79.07;100226.28;5014570;28;20115;-48
2022/03/04 02:29:18;;;;;;;10.60;4.22;;;;;;;7.01;78.97;100233.03;5005886;28;20141;-49
2022/03/04 02:31:46;;;;;;;9.27;3.90;;;;;;;7.00;78.42;100231.31;5011624;28;20050;-48
2022/03/04 02:34:12;;;;;;;11.13;4.40;;;;;;;6.97;78.67;100232.16;5008371;28;20107;-49
2022/03/04 02:36:40;;;;;;;10.98;4.05;;;;;;;6.94;78.68;100232.09;5011046;28;20049;-47
2022/03/04 02:39:07;;;;;;;9.27;3.95;;;;;;;6.93;79.02;100238.09;5012492;28;20045;-52
2022/03/04 02:41:35;;;;;;;10.18;3.55;;;;;;;6.93;79.36;100236.38;5012340;28;20058;-48
2022/03/04 02:44:04;;;;;;;8.45;3.63;;;;;;;6.89;78.94;100232.00;5011069;28;20754;-47
2022/03/04 02:46:31;;;;;;;9.88;4.25;;;;;;;6.88;79.95;100232.88;5008051;28;20077;-49
2022/03/04 02:48:58;;;;;;;10.25;3.58;;;;;;;6.85;78.43;100237.97;5017672;28;20050;-50
2022/03/04 02:51:24;;;;;;;7.43;2.85;;;;;;;6.79;79.87;100237.88;5010134;28;20053;-47
2022/03/04 02:53:51;;;;;;;8.27;2.65;;;;;;;6.76;78.96;100238.66;5016590;28;20104;-44
2022/03/04 02:56:18;;;;;;;9.25;3.30;;;;;;;6.74;78.13;100234.34;5007319;28;20050;-49
2022/03/04 02:58:44;;;;;;;8.23;3.08;;;;;;;6.70;78.83;100233.44;5015431;28;21720;-47
2022/03/04 03:01:11;;;;;;;9.07;3.97;;;;;;;6.63;78.67;100237.63;5008951;28;20501;-47
2022/03/04 03:03:39;;;;;;;6.88;3.13;;;;;;;6.55;78.76;100244.34;4994869;28;20136;-42
2022/03/04 03:06:06;;;;;;;7.93;4.45;;;;;;;6.53;79.63;100240.88;5021624;28;20050;-48
2022/03/04 03:08:33;;;;;;;8.18;3.10;;;;;;;6.52;79.17;100234.00;4995319;28;20062;-50
2022/03/04 03:11:04;;;;;;;11.68;3.60;;;;;;;6.49;79.04;100233.94;4995659;28;20432;-46
2022/03/04 03:13:48;;;;;;;9.23;2.78;;;;;;;6.49;78.69;100231.38;4997924;28;20562;-44
2022/03/04 03:16:33;;;;;;;8.20;3.22;;;;;;;6.47;78.39;100235.63;4995599;28;20050;-49
2022/03/04 03:18:59;;;;;;;10.52;3.70;;;;;;;6.45;78.79;100232.16;4995813;28;20524;-46
2022/03/04 03:21:26;;;;;;;7.97;3.20;;;;;;;6.43;78.29;100229.56;4999035;28;20053;-47
2022/03/04 03:23:53;;;;;;;7.60;3.25;;;;;;;6.42;79.11;100231.25;4998034;28;20662;-48
2022/03/04 03:26:19;;;;;;;9.32;3.55;;;;;;;6.39;79.51;100238.94;4994828;28;20161;-45
2022/03/04 03:28:46;;;;;;;10.77;3.47;;;;;;;6.35;78.92;100234.56;4994834;28;20046;-45
2022/03/04 03:31:12;;;;;;;10.43;3.42;;;;;;;6.36;79.16;100244.03;4976863;28;20521;-49
2022/03/04 03:33:41;;;;;;;9.07;3.60;;;;;;;6.35;77.94;100242.28;4978156;28;20061;-50
2022/03/04 03:36:08;;;;;;;10.35;3.40;;;;;;;6.36;77.96;100245.72;4995830;28;20137;-45
2022/03/04 03:38:34;;;;;;;7.22;2.95;;;;;;;6.33;79.18;100249.13;4995649;28;20099;-45
2022/03/04 03:41:02;;;;;;;7.72;3.17;;;;;;;6.28;78.47;100246.47;4997676;28;20044;-45
2022/03/04 03:43:40;;;;;;;9.52;3.83;;;;;;;6.21;79.72;100249.75;4995524;28;20056;-47
2022/03/04 03:46:07;;;;;;;5.53;2.33;;;;;;;6.23;79.07;100252.34;4991877;28;20050;-49
2022/03/04 03:48:34;;;;;;;7.60;3.60;;;;;;;6.22;79.31;100260.91;5001526;28;20092;-48
2022/03/04 03:51:02;;;;;;;11.48;4.20;;;;;;;6.23;78.47;100262.66;4998267;28;20502;-50
2022/03/04 03:53:28;;;;;;;8.65;2.67;;;;;;;6.21;79.25;100264.34;4996373;28;20062;-45
2022/03/04 03:55:55;;;;;;;9.35;3.92;;;;;;;6.21;78.63;100264.34;4991000;28;20100;-52
2022/03/04 03:58:21;;;;;;;9.55;3.65;;;;;;;6.22;79.00;100259.22;4992738;28;20100;-45
2022/03/04 04:00:48;;;;;;;9.52;3.85;;;;;;;6.23;78.40;100262.66;4995807;28;20563;-51
2022/03/04 04:03:15;;;;;;;8.73;3.25;;;;;;;6.21;78.27;100265.19;4995742;28;20062;-50
2022/03/04 04:05:42;;;;;;;9.32;3.42;;;;;;;6.18;78.98;100270.28;4993221;28;20054;-46
2022/03/04 04:08:09;;;;;;;8.32;3.22;;;;;;;6.15;78.05;100265.94;4994045;28;20049;-47
2022/03/04 04:10:35;;;;;;;8.85;3.05;;;;;;;6.16;78.54;100270.28;5000564;28;20053;-47
2022/03/04 04:13:02;;;;;;;11.05;3.92;;;;;;;6.17;78.35;100279.72;4993693;28;20054;-47
2022/03/04 04:15:29;;;;;;;10.02;4.43;;;;;;;6.16;79.06;100277.09;5000819;28;20097;-50
2022/03/04 04:17:55;;;;;;;9.48;3.83;;;;;;;6.15;79.02;100286.50;4995567;28;20469;-47
2022/03/04 04:20:22;;;;;;;8.40;3.75;;;;;;;6.12;77.84;100288.19;5001179;28;20046;-49
2022/03/04 04:22:48;;;;;;;11.55;4.30;;;;;;;6.13;78.99;100285.63;4993311;28;20097;-49
2022/03/04 04:25:15;;;;;;;11.68;3.28;;;;;;;6.09;79.42;100286.41;4992071;28;20568;-46
2022/03/04 04:27:42;;;;;;;9.60;4.13;;;;;;;6.06;78.87;100286.34;4984774;28;20104;-51
2022/03/04 04:30:09;;;;;;;10.32;4.30;;;;;;;6.04;78.98;100278.59;4985193;28;20045;-48
2022/03/04 04:32:36;;;;;;;14.80;4.65;;;;;;;6.01;78.68;100278.50;4997015;28;20046;-44
2022/03/04 04:35:03;;;;;;;10.07;4.32;;;;;;;5.98;78.03;100277.59;4990974;28;20114;-48
2022/03/04 04:37:30;;;;;;;13.52;5.13;;;;;;;5.96;77.81;100285.28;4998414;28;20100;-44
2022/03/04 04:39:57;;;;;;;10.68;4.70;;;;;;;5.94;78.03;100281.78;4991973;28;20050;-52
2022/03/04 04:42:24;;;;;;;10.82;4.60;;;;;;;5.91;79.41;100282.59;4996093;28;20108;-44
2022/03/04 04:44:52;;;;;;;12.00;4.57;;;;;;;5.94;79.37;100296.38;4995444;28;20046;-50
2022/03/04 04:47:19;;;;;;;11.57;4.55;;;;;;;5.93;78.27;100290.34;4994770;28;20352;-48
2022/03/04 04:49:45;;;;;;;10.20;4.00;;;;;;;5.89;79.45;100292.00;4995320;28;20101;-46
2022/03/04 04:52:12;;;;;;;13.50;4.85;;;;;;;5.89;78.30;100299.72;4992701;28;20104;-47
2022/03/04 04:54:38;;;;;;;11.85;4.35;;;;;;;5.90;79.64;100301.44;4996147;28;20454;-46
2022/03/04 04:57:23;;;;;;;9.50;3.97;;;;;;;5.86;78.16;100304.78;4993703;28;20140;-45
2022/03/04 04:59:49;;;;;;;9.20;3.30;;;;;;;5.85;78.12;100308.19;4997893;28;20054;-47
2022/03/04 05:02:16;;;;;;;12.07;3.38;;;;;;;5.82;78.04;100305.56;4993361;28;20096;-50
2022/03/04 05:04:43;;;;;;;10.35;3.65;;;;;;;5.81;78.95;100308.94;4997484;28;20054;-50
2022/03/04 05:07:09;;;;;;;7.22;3.38;;;;;;;5.74;78.13;100310.53;4998498;28;20038;-43
2022/03/04 05:09:36;;;;;;;7.57;2.88;;;;;;;5.74;78.84;100307.09;4992089;28;20124;-47
2022/03/04 05:12:03;;;;;;;7.35;3.55;;;;;;;5.76;79.21;100315.69;4998063;28;20108;-47
2022/03/04 05:14:29;;;;;;;9.90;3.42;;;;;;;5.76;78.24;100321.72;4990611;28;20501;-46
2022/03/04 05:16:56;;;;;;;14.05;3.67;;;;;;;5.76;78.49;100324.28;4997068;28;20108;-48
2022/03/04 05:19:23;;;;;;;7.55;3.42;;;;;;;5.76;78.41;100325.97;4993530;28;20046;-45
2022/03/04 05:21:49;;;;;;;8.20;4.00;;;;;;;5.75;79.13;100321.69;4998283;28;20045;-44
2022/03/04 05:24:16;;;;;;;6.82;3.00;;;;;;;5.69;79.13;100324.09;4992048;28;20054;-45
2022/03/04 05:26:43;;;;;;;7.78;4.03;;;;;;;5.69;78.11;100331.81;4992734;28;20066;-50
2022/03/04 05:29:11;;;;;;;8.82;3.53;;;;;;;5.69;79.45;100336.97;4993170;28;20104;-45
2022/03/04 05:31:39;;;;;;;9.93;3.80;;;;;;;5.64;79.02;100334.31;4990689;28;20109;-44
2022/03/04 05:34:07;;;;;;;10.27;4.15;;;;;;;5.64;78.54;100331.75;4995567;28;20046;-45
2022/03/04 05:36:35;;;;;;;9.02;3.55;;;;;;;5.61;79.22;100335.09;4994591;28;20061;-49
2022/03/04 05:39:02;;;;;;;7.88;3.47;;;;;;;5.61;78.38;100329.94;4994736;28;20356;-49
2022/03/04 05:41:29;;;;;;;7.05;3.25;;;;;;;5.56;78.82;100331.56;4999473;28;20088;-46
2022/03/04 05:43:56;;;;;;;8.32;3.28;;;;;;;5.58;79.24;100329.91;4991331;28;20057;-48
2022/03/04 05:46:23;;;;;;;8.15;3.58;;;;;;;5.60;79.24;100348.78;4997428;28;20052;-46
2022/03/04 05:48:50;;;;;;;7.18;3.10;;;;;;;5.59;79.72;100347.03;4990377;28;20053;-46
2022/03/04 05:51:17;;;;;;;10.20;4.65;;;;;;;5.59;78.40;100347.03;4993013;28;20050;-47
2022/03/04 05:53:44;;;;;;;10.30;4.22;;;;;;;5.57;78.70;100343.56;4992425;28;20116;-48
2022/03/04 05:56:10;;;;;;;8.60;3.90;;;;;;;5.56;79.31;100344.41;4997137;28;20054;-47
2022/03/04 05:58:37;;;;;;;9.02;3.85;;;;;;;5.56;78.80;100346.97;4991175;28;20088;-48
2022/03/04 06:01:06;;;;;;;6.93;2.90;;;;;;;5.53;78.95;100357.16;4991093;28;20057;-49
2022/03/04 06:03:34;;;;;;;9.32;3.90;;;;;;;5.53;78.66;100346.91;4991545;28;20070;-48
2022/03/04 06:06:03;;;;;;;6.15;2.63;;;;;;;5.48;79.61;100353.63;4991258;28;20046;-52
2022/03/04 06:08:29;;;;;;;7.50;3.75;;;;;;;5.49;79.13;100355.38;4993156;28;20046;-49
2022/03/04 06:10:57;;;;;;;8.57;3.00;;;;;;;5.48;78.55;100353.63;4985783;28;20064;-48
2022/03/04 06:13:24;;;;;;;8.73;3.67;;;;;;;5.48;79.03;100358.78;4978198;28;20057;-44
2022/03/04 06:15:51;;;;;;;8.82;3.10;;;;;;;5.46;79.14;100360.44;4996313;28;20510;-47
2022/03/04 06:18:17;;;;;;;8.35;3.38;;;;;;;5.44;79.38;100360.38;4990968;28;20144;-48
2022/03/04 06:20:45;;;;;;;8.52;3.38;;;;;;;5.43;78.93;100362.94;4994366;28;20057;-50
2022/03/04 06:23:13;;;;;;;7.22;3.05;;;;;;;5.40;79.13;100356.88;4991848;28;20474;-50
2022/03/04 06:25:39;;;;;;;8.13;3.05;;;;;;;5.40;79.53;100359.47;4992956;28;20049;-51
2022/03/04 06:28:06;;;;;;;7.50;3.00;;;;;;;5.38;78.49;100358.53;4993768;28;20053;-45
2022/03/04 06:30:36;;;;;;;7.22;2.83;;;;;;;5.34;78.87;100364.44;4994285;28;20513;-50
2022/03/04 06:35:53;;;;;;;6.97;2.85;;;;;;;5.33;78.50;100367.84;4971091;28;20096;-51
2022/03/04 06:38:20;;;;;;;6.30;2.80;;;;;;;5.33;78.66;100367.84;4998007;28;20054;-48
2022/03/04 06:40:48;;;;;;;4.15;1.95;;;;;;;5.28;80.02;100378.00;4995589;28;20050;-46
2022/03/04 06:43:15;;;;;;;4.88;2.15;;;;;;;5.30;78.37;100375.47;5003041;28;20105;-47
2022/03/04 06:45:44;;;;;;;7.72;3.47;;;;;;;5.31;78.49;100379.81;4994155;28;20058;-50
2022/03/04 06:48:12;;;;;;;6.65;2.50;;;;;;;5.25;79.02;100374.50;4991924;28;20058;-47
2022/03/04 06:50:39;;;;;;;8.50;4.05;;;;;;;5.23;79.79;100377.03;4998594;28;20454;-48
2022/03/04 06:53:06;;;;;;;8.82;2.92;;;;;;;5.20;79.69;100374.38;4989191;28;20046;-49
2022/03/04 06:55:33;;;;;;;7.70;2.90;;;;;;;5.22;79.66;100382.13;4996041;28;20105;-47
2022/03/04 06:58:00;;;;;;;8.60;4.60;;;;;;;5.21;79.70;100377.84;4991394;28;20058;-49
2022/03/04 07:00:27;;;;;;;6.85;3.25;;;;;;;5.19;80.23;100388.06;4987600;28;20037;-44
2022/03/04 07:02:54;;;;;;;5.88;1.73;;;;;;;5.21;79.08;100391.56;4992617;28;20070;-47
2022/03/04 07:05:22;;;;;;;7.07;2.70;;;;;;;5.19;78.94;100392.31;4995223;28;20057;-44
2022/03/04 07:07:50;;;;;;;7.65;2.78;;;;;;;5.20;78.91;100399.22;4983138;28;20042;-49
2022/03/04 07:10:17;;;;;;;5.75;2.78;;;;;;;5.18;78.87;100406.00;4995732;28;20067;-49
2022/03/04 07:12:44;;;;;;;6.55;2.92;;;;;;;5.23;78.81;100412.09;4996044;28;20128;-50
2022/03/04 07:15:12;;;;;;;7.35;2.25;;;;;;;5.23;79.82;100412.09;4997617;28;20177;-47
2022/03/04 07:17:43;;;;;;;6.28;2.63;;;;;;;5.21;79.91;100408.66;4999918;28;20050;-50
2022/03/04 07:20:10;;;;;;;7.63;2.80;;;;;;;5.20;78.99;100409.50;4992311;28;20046;-47
2022/03/04 07:22:38;;;;;;;6.40;2.45;;;;;;;5.20;78.65;100415.47;5002212;28;20482;-49
2022/03/04 07:25:07;;;;;;;6.85;2.28;;;;;;;5.19;78.91;100418.00;4991901;28;20557;-48
2022/03/04 07:27:35;;;;;;;7.25;2.92;;;;;;;5.20;78.91;100414.63;4999971;28;20544;-48
2022/03/04 07:30:04;;;;;;;5.72;2.30;;;;;;;5.20;78.88;100420.59;4998288;28;20055;-45
2022/03/04 07:32:32;;;;;;;5.07;2.67;;;;;;;5.17;78.98;100424.81;4994356;28;20046;-49
2022/03/04 07:34:59;;;;;;;5.82;2.35;;;;;;;5.17;79.10;100429.94;4993315;28;20053;-48
2022/03/04 07:37:26;;;;;;;7.32;3.42;;;;;;;5.18;79.73;100436.81;4998070;28;20470;-49
2022/03/04 07:39:52;;;;;;;7.05;2.95;;;;;;;5.20;79.99;100435.16;4997277;28;20042;-49
2022/03/04 07:42:19;;;;;;;5.72;1.95;;;;;;;5.19;79.83;100430.84;4996480;28;20096;-48
2022/03/04 07:44:46;;;;;;;8.65;2.92;;;;;;;5.15;79.15;100432.47;4994592;28;20589;-46
2022/03/04 07:47:12;;;;;;;6.75;2.85;;;;;;;5.15;79.19;100437.63;4990291;28;20054;-46
2022/03/04 07:49:42;;;;;;;7.63;2.72;;;;;;;5.13;78.81;100435.00;5000984;28;20042;-49
2022/03/04 07:52:09;;;;;;;6.65;2.70;;;;;;;5.15;79.00;100437.63;4999156;28;20057;-48
2022/03/04 07:54:36;;;;;;;6.88;2.30;;;;;;;5.14;79.28;100447.00;4987915;28;20637;-48
2022/03/04 07:57:03;;;;;;;6.40;2.70;;;;;;;5.16;79.44;100443.63;4987817;28;20054;-45
2022/03/04 07:59:30;;;;;;;7.32;2.95;;;;;;;5.16;79.31;100443.63;4992755;28;20077;-51
2022/03/04 08:01:57;;;;;;;6.65;2.95;;;;;;;5.18;79.65;100441.94;4993872;28;20160;-46
2022/03/04 08:04:24;;;;;;;6.88;2.40;;;;;;;5.19;79.92;100456.53;4990418;28;20632;-46
2022/03/04 08:06:50;;;;;;;6.75;2.45;;;;;;;5.16;79.90;100453.91;4991484;28;20084;-48
2022/03/04 08:09:17;;;;;;;8.98;2.30;;;;;;;5.19;79.12;100461.66;4995501;28;20042;-49
2022/03/04 08:11:46;;;;;;;6.78;2.63;;;;;;;5.17;79.35;100458.19;4993856;28;20128;-47
2022/03/04 08:14:13;;;;;;;6.45;2.42;;;;;;;5.18;79.78;100467.63;4992144;28;20092;-46
2022/03/04 08:16:39;;;;;;;5.25;2.50;;;;;;;5.14;79.85;100466.69;4995422;28;20089;-46
2022/03/04 08:19:06;;;;;;;4.97;1.75;;;;;;;5.14;79.00;100472.69;4987864;28;20046;-46
2022/03/04 08:21:33;;;;;;;6.55;2.13;;;;;;;5.16;79.18;100479.56;4992970;28;20089;-53
2022/03/04 08:23:59;;;;;;;5.40;2.58;;;;;;;5.11;79.65;100480.31;4989861;28;20045;-48
2022/03/04 08:26:26;;;;;;;5.50;2.20;;;;;;;5.18;78.98;100489.06;4995559;28;20046;-46
2022/03/04 08:28:58;;;;;;;7.13;2.15;;;;;;;5.19;79.73;100487.34;4990541;28;20648;-46
2022/03/04 08:31:25;;;;;;;5.03;2.03;;;;;;;5.17;79.96;100486.44;4995029;28;20050;-48
2022/03/04 08:33:51;;;;;;;5.22;2.15;;;;;;;5.19;79.12;100484.78;4998439;28;20043;-45
2022/03/04 08:36:18;;;;;;;4.03;2.10;;;;;;;5.19;79.83;100489.91;4990826;28;20054;-48
2022/03/04 08:38:46;;;;;;;4.70;2.00;;;;;;;5.18;79.50;100485.59;4997601;28;20796;-45
2022/03/04 08:41:12;;;;;;;5.70;2.10;;;;;;;5.19;78.96;100495.03;4997349;28;20050;-47
2022/03/04 08:43:39;;;;;;;4.45;1.80;;;;;;;5.21;79.55;100488.25;4999570;28;20058;-47
2022/03/04 08:46:07;;;;;;;4.97;1.88;;;;;;;5.24;78.87;100493.50;4990993;28;20046;-51
2022/03/04 08:48:34;;;;;;;6.72;3.33;;;;;;;5.26;78.86;100494.38;4983005;28;20074;-47
2022/03/04 08:51:02;;;;;;;5.70;1.90;;;;;;;5.27;79.24;100499.56;4983120;28;20052;-44
2022/03/04 08:53:29;;;;;;;5.93;2.60;;;;;;;5.30;79.22;100505.63;4981622;28;20078;-48
2022/03/04 08:55:56;;;;;;;5.70;2.30;;;;;;;5.29;79.57;100499.59;4984908;28;20134;-49
2022/03/04 08:58:22;;;;;;;5.10;2.38;;;;;;;5.28;79.49;100505.56;4975076;28;20607;-49
2022/03/04 09:00:49;;;;;;;4.35;1.92;;;;;;;5.29;78.67;100507.31;4977390;28;20101;-46
2022/03/04 09:03:17;;;;;;;5.45;2.50;;;;;;;5.31;79.44;100500.53;4985626;28;20050;-48
2022/03/04 09:05:44;;;;;;;5.85;2.47;;;;;;;5.30;79.52;100508.19;4999345;28;20770;-50
2022/03/04 09:08:10;;;;;;;5.68;2.13;;;;;;;5.33;78.92;100514.25;4993788;28;20054;-50
2022/03/04 09:10:37;;;;;;;6.72;3.30;;;;;;;5.35;78.71;100509.16;4996621;28;20046;-48
2022/03/04 09:13:05;;;;;;;6.38;2.42;;;;;;;5.33;79.06;100504.00;4989606;28;20060;-49
2022/03/04 09:15:33;;;;;;;5.97;2.33;;;;;;;5.37;78.63;100505.81;4998958;28;20048;-46
2022/03/04 09:17:59;;;;;;;5.50;2.35;;;;;;;5.40;79.26;100510.16;4987692;28;20058;-46
2022/03/04 09:20:43;;;;;;;5.55;2.03;;;;;;;5.42;78.87;100517.91;4986554;28;20057;-50
2022/03/04 09:23:10;;;;;;;5.07;2.03;;;;;;;5.42;78.50;100520.47;4989236;28;20116;-49
2022/03/04 09:25:37;;;;;;;5.20;2.22;;;;;;;5.38;79.52;100514.41;4999588;28;20042;-50
2022/03/04 09:28:04;;;;;;;7.30;2.75;;;;;;;5.41;78.13;100514.47;4995710;28;20100;-51
2022/03/04 09:30:33;;;;;;;6.45;2.30;;;;;;;5.42;79.21;100517.91;4998820;28;20046;-48
2022/03/04 09:33:00;;;;;;;8.07;3.03;;;;;;;5.43;79.52;100520.50;4989025;28;20091;-49
2022/03/04 09:35:26;;;;;;;5.88;2.65;;;;;;;5.49;78.36;100517.22;4992024;28;20077;-48
2022/03/04 09:37:54;;;;;;;4.28;2.58;;;;;;;5.44;79.51;100516.25;4991393;28;20054;-47
2022/03/04 09:40:20;;;;;;;5.38;2.78;;;;;;;5.46;78.61;100514.56;4995819;28;20487;-44
2022/03/04 09:42:47;;;;;;;9.05;3.17;;;;;;;5.40;78.75;100523.88;4993897;28;20045;-45
2022/03/04 09:45:14;;;;;;;5.80;2.33;;;;;;;5.45;78.23;100525.69;4989175;28;20128;-47
2022/03/04 09:47:43;;;;;;;9.73;2.85;;;;;;;5.45;78.40;100524.00;4988961;28;20124;-47
2022/03/04 09:50:10;;;;;;;6.43;2.42;;;;;;;5.48;78.50;100525.78;4987076;28;20049;-51
2022/03/04 09:52:36;;;;;;;6.90;2.67;;;;;;;5.48;79.24;100528.34;4990251;28;20740;-50
2022/03/04 09:55:03;;;;;;;8.07;3.10;;;;;;;5.51;79.41;100533.56;4988270;28;21069;-51
2022/03/04 09:57:30;;;;;;;7.10;2.80;;;;;;;5.53;79.54;100527.63;4988035;28;20058;-47
2022/03/04 09:59:56;;;;;;;8.20;3.10;;;;;;;5.56;78.66;100531.97;4987347;28;20085;-48
2022/03/04 10:02:25;;;;;;;7.78;3.47;;;;;;;5.58;78.76;100535.47;4989285;28;20057;-47
2022/03/04 10:05:01;;;;;;;11.60;3.85;;;;;;;5.58;78.88;100538.03;4986051;28;20042;-48
2022/03/04 10:07:39;;;;;;;7.32;2.47;;;;;;;5.57;78.64;100541.41;4985055;28;20078;-49
2022/03/04 10:10:12;;;;;;;8.25;2.75;;;;;;;5.61;78.69;100545.81;4990287;28;20049;-50
2022/03/04 10:12:49;;;;;;;6.97;2.92;;;;;;;5.59;79.23;100537.22;4994946;28;20549;-48
2022/03/04 10:15:17;;;;;;;7.13;2.78;;;;;;;5.63;78.36;100544.16;4996618;28;20111;-54
2022/03/04 10:17:56;;;;;;;6.32;3.00;;;;;;;5.65;79.46;100544.19;4991468;28;20116;-49
2022/03/04 10:20:31;;;;;;;6.93;2.58;;;;;;;5.65;78.89;100537.34;4999506;28;20612;-50
2022/03/04 10:23:18;;;;;;;10.35;3.17;;;;;;;5.68;79.06;100544.28;4989191;28;20049;-47
2022/03/04 10:25:48;;;;;;;6.20;2.08;;;;;;;5.69;79.22;100547.72;4996574;28;20050;-52
2022/03/04 10:28:15;;;;;;;6.05;2.50;;;;;;;5.68;78.62;100540.84;4990344;28;20645;-48
2022/03/04 10:30:46;;;;;;;7.80;3.33;;;;;;;5.69;79.11;100550.28;4997852;28;20058;-47
2022/03/04 10:33:17;;;;;;;7.38;3.05;;;;;;;5.66;79.65;100549.38;4991589;28;20670;-47
2022/03/04 10:35:46;;;;;;;7.28;2.47;;;;;;;5.66;78.63;100546.81;4993934;28;21325;-47
2022/03/04 10:38:23;;;;;;;10.00;2.85;;;;;;;5.64;78.98;100545.88;4995401;28;20061;-50
2022/03/04 10:40:51;;;;;;;5.82;2.40;;;;;;;5.71;78.40;100551.19;4997140;28;20049;-49
2022/03/04 10:43:23;;;;;;;6.28;3.08;;;;;;;5.72;78.36;100552.94;5000644;28;20053;-45
2022/03/04 10:46:03;;;;;;;8.55;2.97;;;;;;;5.76;79.07;100549.59;4991476;28;20050;-52
2022/03/04 10:48:31;;;;;;;6.63;2.75;;;;;;;5.77;78.29;100556.47;4997687;28;20054;-49
2022/03/04 10:51:04;;;;;;;6.40;2.85;;;;;;;5.76;78.51;100557.31;4993491;28;20056;-48
2022/03/04 10:53:33;;;;;;;8.50;2.50;;;;;;;5.80;79.64;100556.56;4988419;28;20050;-49
2022/03/04 10:56:04;;;;;;;7.13;2.92;;;;;;;5.83;79.23;100556.66;4988957;28;20050;-51
2022/03/04 10:58:37;;;;;;;5.47;2.28;;;;;;;5.82;79.25;100559.19;4991966;28;20050;-51
2022/03/04 11:03:41;;;;;;;7.05;2.92;;;;;;;5.82;78.71;100559.19;5000744;28;20408;-53
2022/03/04 11:06:12;;;;;;;7.25;2.65;;;;;;;5.86;78.37;100556.72;5000347;28;20070;-50
2022/03/04 11:08:39;;;;;;;7.35;2.60;;;;;;;5.88;78.44;100555.03;4999300;28;20073;-45
2022/03/04 11:11:08;;;;;;;7.25;3.33;;;;;;;5.90;79.33;100558.53;4995667;28;20065;-48
2022/03/04 11:13:37;;;;;;;6.38;2.75;;;;;;;5.96;78.98;100555.25;4995260;28;20109;-46
2022/03/04 11:16:05;;;;;;;8.77;2.85;;;;;;;6.02;79.50;100547.66;5023226;28;20050;-46
2022/03/04 11:18:33;;;;;;;6.60;2.83;;;;;;;6.04;78.88;100550.31;4996755;28;20053;-49
2022/03/04 11:21:04;;;;;;;6.03;2.78;;;;;;;6.06;79.34;100553.81;5014369;28;20057;-50
2022/03/04 11:23:33;;;;;;;7.55;2.92;;;;;;;6.09;78.28;100556.44;4993774;28;20058;-46
2022/03/04 11:26:02;;;;;;;8.52;2.80;;;;;;;6.06;79.11;100564.09;4989338;28;20038;-47
2022/03/04 11:28:37;;;;;;;5.88;2.72;;;;;;;6.03;79.12;100551.13;5001282;28;20057;-48
2022/03/04 11:31:07;;;;;;;;;;;;;;;6.00;78.65;100556.19;4994011;28;20108;-48
2022/03/04 11:33:37;;;;;;;7.72;3.38;;;;;;;6.05;79.34;100562.34;4997348;28;20005;-47
2022/03/04 11:36:07;;;;;;;7.28;3.28;;;;;;;6.07;78.32;100557.22;4993502;28;20498;-50
2022/03/04 11:57:28;;;;;;;5.78;2.33;;;;;;;5.89;77.89;100561.06;5041722;27;20424;-43
2022/03/04 12:02:50;;;;;;;6.20;2.15;;;;;;;5.86;78.33;100564.44;5023223;28;20990;-46